createdAt,value
2018-11-03T00:00:14.187Z,3.90
2018-11-03T00:02:44.148Z,4.00
2018-11-03T00:05:13.378Z,3.90
2018-11-03T00:07:42.677Z,3.90
2018-11-03T00:10:11.838Z,3.80
2018-11-03T00:12:41.051Z,3.90
2018-11-03T00:15:10.393Z,3.80
2018-11-03T00:17:40.512Z,3.70
2018-11-03T00:20:09.835Z,3.70
2018-11-03T00:22:38.864Z,3.70
2018-11-03T00:25:08.532Z,3.70
2018-11-03T00:27:37.296Z,3.60
2018-11-03T00:30:09.510Z,3.60
2018-11-03T00:32:38.745Z,3.60
2018-11-03T00:35:07.808Z,3.50
2018-11-03T00:37:36.972Z,3.60
2018-11-03T00:40:08.277Z,3.60
2018-11-03T00:42:38.041Z,3.60
2018-11-03T00:45:08.598Z,3.60
2018-11-03T00:47:38.155Z,3.60
2018-11-03T00:50:08.113Z,3.60
2018-11-03T00:52:37.425Z,3.60
2018-11-03T00:55:07.348Z,3.60
2018-11-03T00:57:36.584Z,3.60
2018-11-03T01:00:08.891Z,3.50
2018-11-03T01:02:38.267Z,3.60
2018-11-03T01:05:08.052Z,3.80
2018-11-03T01:07:38.692Z,3.90
2018-11-03T01:10:08.189Z,4.00
2018-11-03T01:12:38.390Z,4.00
2018-11-03T01:15:09.736Z,4.00
2018-11-03T01:17:39.157Z,4.10
2018-11-03T01:20:10.062Z,4.10
2018-11-03T01:22:39.381Z,4.00
2018-11-03T01:25:09.196Z,4.00
2018-11-03T01:27:38.119Z,3.90
2018-11-03T01:30:12.239Z,3.90
2018-11-03T01:32:41.405Z,3.90
2018-11-03T01:35:10.671Z,3.90
2018-11-03T01:37:40.319Z,3.90
2018-11-03T01:40:10.844Z,3.80
2018-11-03T01:42:40.081Z,3.70
2018-11-03T01:45:09.300Z,3.80
2018-11-03T01:47:38.947Z,3.80
2018-11-03T01:50:09.412Z,3.80
2018-11-03T01:52:39.258Z,3.80
2018-11-03T01:55:08.826Z,3.70
2018-11-03T01:57:38.723Z,3.80
2018-11-03T02:00:08.784Z,3.80
2018-11-03T02:02:37.988Z,3.80
2018-11-03T02:05:08.206Z,3.80
2018-11-03T02:07:37.004Z,3.80
2018-11-03T02:10:07.312Z,3.80
2018-11-03T02:12:36.523Z,3.80
2018-11-03T02:15:05.974Z,3.80
2018-11-03T02:17:34.957Z,3.90
2018-11-03T02:20:04.050Z,3.90
2018-11-03T02:22:33.269Z,3.80
2018-11-03T02:25:02.319Z,3.80
2018-11-03T02:27:31.832Z,3.70
2018-11-03T02:30:00.764Z,3.60
2018-11-03T02:32:30.023Z,3.60
2018-11-03T02:34:59.358Z,3.50
2018-11-03T02:37:28.416Z,3.50
2018-11-03T02:39:57.618Z,3.40
2018-11-03T02:42:26.789Z,3.20
2018-11-03T02:44:55.986Z,3.20
2018-11-03T02:47:25.099Z,3.10
2018-11-03T02:49:54.073Z,3.10
2018-11-03T02:52:23.535Z,3.20
2018-11-03T02:54:52.525Z,3.20
2018-11-03T02:57:21.925Z,3.30
2018-11-03T02:59:51.247Z,3.30
2018-11-03T03:02:20.429Z,3.30
2018-11-03T03:04:49.725Z,3.30
2018-11-03T03:07:19.329Z,3.40
2018-11-03T03:09:48.368Z,3.40
2018-11-03T03:12:17.476Z,3.50
2018-11-03T03:14:46.374Z,3.50
2018-11-03T03:17:15.601Z,3.50
2018-11-03T03:19:44.581Z,3.50
2018-11-03T03:22:13.344Z,3.60
2018-11-03T03:24:42.664Z,3.60
2018-11-03T03:27:11.883Z,3.60
2018-11-03T03:29:41.343Z,3.70
2018-11-03T03:32:10.435Z,3.70
2018-11-03T03:34:39.702Z,3.70
2018-11-03T03:37:08.796Z,3.80
2018-11-03T03:39:38.205Z,3.80
2018-11-03T03:42:07.136Z,3.80
2018-11-03T03:44:36.082Z,3.80
2018-11-03T03:47:05.410Z,3.80
2018-11-03T03:49:34.356Z,3.70
2018-11-03T03:52:03.638Z,3.70
2018-11-03T03:54:32.416Z,3.70
2018-11-03T03:57:01.640Z,3.70
2018-11-03T03:59:30.469Z,3.70
2018-11-03T04:02:00.131Z,3.70
2018-11-03T04:04:29.288Z,3.70
2018-11-03T04:06:58.224Z,3.70
2018-11-03T04:09:27.613Z,3.70
2018-11-03T04:11:56.712Z,3.60
2018-11-03T04:14:26.136Z,3.60
2018-11-03T04:16:55.401Z,3.60
2018-11-03T04:19:24.480Z,3.50
2018-11-03T04:21:53.828Z,3.50
2018-11-03T04:24:23.008Z,3.60
2018-11-03T04:26:52.015Z,3.70
2018-11-03T04:29:21.317Z,3.80
2018-11-03T04:31:50.716Z,3.60
2018-11-03T04:34:19.724Z,3.50
2018-11-03T04:36:48.867Z,3.40
2018-11-03T04:39:18.135Z,3.30
2018-11-03T04:41:47.214Z,3.20
2018-11-03T04:44:16.173Z,3.10
2018-11-03T04:46:44.939Z,3.00
2018-11-03T04:49:14.144Z,3.10
2018-11-03T04:51:43.152Z,3.20
2018-11-03T04:54:12.451Z,3.30
2018-11-03T04:56:42.003Z,3.60
2018-11-03T04:59:11.347Z,3.80
2018-11-03T05:01:40.180Z,3.80
2018-11-03T05:04:09.328Z,3.90
2018-11-03T05:06:38.805Z,3.90
2018-11-03T05:09:09.372Z,3.90
2018-11-03T05:11:38.521Z,3.90
2018-11-03T05:14:08.297Z,3.80
2018-11-03T05:16:37.716Z,3.60
2018-11-03T05:19:08.028Z,3.50
2018-11-03T05:21:37.384Z,3.50
2018-11-03T05:24:06.663Z,3.70
2018-11-03T05:26:36.153Z,3.70
2018-11-03T05:29:05.740Z,3.80
2018-11-03T05:31:35.157Z,3.90
2018-11-03T05:34:04.279Z,3.90
2018-11-03T05:36:33.336Z,3.90
2018-11-03T05:39:02.583Z,4.00
2018-11-03T05:41:31.763Z,4.10
2018-11-03T05:44:00.857Z,4.20
2018-11-03T05:46:30.321Z,4.20
2018-11-03T05:48:59.327Z,4.30
2018-11-03T05:51:28.477Z,4.40
2018-11-03T05:53:57.878Z,4.40
2018-11-03T05:56:26.900Z,4.40
2018-11-03T05:58:55.979Z,4.40
2018-11-03T06:01:25.129Z,4.40
2018-11-03T06:03:54.111Z,4.50
2018-11-03T06:06:23.277Z,4.60
2018-11-03T06:08:52.478Z,4.60
2018-11-03T06:11:21.616Z,4.60
2018-11-03T06:13:50.920Z,4.70
2018-11-03T06:16:20.071Z,4.70
2018-11-03T06:18:49.157Z,4.80
2018-11-03T06:21:18.222Z,4.80
2018-11-03T06:23:47.461Z,4.90
2018-11-03T06:26:16.765Z,5.00
2018-11-03T06:28:45.728Z,5.00
2018-11-03T06:31:14.549Z,5.00
2018-11-03T06:33:43.400Z,5.00
2018-11-03T06:36:12.393Z,5.00
2018-11-03T06:38:41.517Z,5.10
2018-11-03T06:41:10.417Z,5.10
2018-11-03T06:43:39.682Z,5.10
2018-11-03T06:46:08.932Z,5.10
2018-11-03T06:48:40.656Z,5.10
2018-11-03T06:51:10.214Z,5.20
2018-11-03T06:53:40.287Z,5.20
2018-11-03T06:56:09.485Z,5.20
2018-11-03T06:58:38.495Z,5.30
2018-11-03T07:01:07.367Z,5.30
2018-11-03T07:03:36.614Z,5.40
2018-11-03T07:06:05.977Z,5.40
2018-11-03T07:08:36.012Z,5.40
2018-11-03T07:11:05.204Z,5.40
2018-11-03T07:13:34.203Z,5.40
2018-11-03T07:16:03.267Z,5.40
2018-11-03T07:18:32.340Z,5.50
2018-11-03T07:21:01.555Z,5.70
2018-11-03T07:23:30.708Z,5.80
2018-11-03T07:25:59.880Z,5.80
2018-11-03T07:28:29.460Z,6.00
2018-11-03T07:30:58.287Z,6.10
2018-11-03T07:33:27.676Z,6.10
2018-11-03T07:35:56.916Z,6.10
2018-11-03T07:38:26.341Z,6.20
2018-11-03T07:40:55.498Z,6.20
2018-11-03T07:43:24.445Z,6.30
2018-11-03T07:45:54.377Z,6.40
2018-11-03T07:48:23.743Z,6.40
2018-11-03T07:50:53.080Z,6.40
2018-11-03T07:53:22.281Z,6.50
2018-11-03T07:55:51.452Z,6.60
2018-11-03T07:58:21.223Z,6.60
2018-11-03T08:00:50.153Z,6.70
2018-11-03T08:03:19.416Z,6.70
2018-11-03T08:05:48.472Z,6.80
2018-11-03T08:08:17.339Z,6.80
2018-11-03T08:10:46.298Z,6.80
2018-11-03T08:13:15.528Z,6.90
2018-11-03T08:15:44.914Z,6.90
2018-11-03T08:18:14.164Z,7.00
2018-11-03T08:20:43.416Z,7.00
2018-11-03T08:23:12.686Z,7.00
2018-11-03T08:25:41.841Z,7.00
2018-11-03T08:28:10.778Z,7.00
2018-11-03T08:30:40.456Z,7.00
2018-11-03T08:33:09.688Z,7.00
2018-11-03T08:35:39.237Z,7.00
2018-11-03T08:38:08.394Z,7.10
2018-11-03T08:40:37.605Z,7.10
2018-11-03T08:43:06.883Z,7.10
2018-11-03T08:45:36.256Z,7.10
2018-11-03T08:48:05.952Z,7.20
2018-11-03T08:50:34.909Z,7.20
2018-11-03T08:53:03.971Z,7.30
2018-11-03T08:55:32.733Z,7.30
2018-11-03T08:58:01.905Z,7.40
2018-11-03T09:00:30.924Z,7.40
2018-11-03T09:02:59.887Z,7.50
2018-11-03T09:05:28.632Z,7.50
2018-11-03T09:07:57.779Z,7.60
2018-11-03T09:10:26.717Z,7.60
2018-11-03T09:12:55.841Z,7.70
2018-11-03T09:15:24.567Z,7.70
2018-11-03T09:17:53.545Z,7.80
2018-11-03T09:20:22.693Z,7.90
2018-11-03T09:22:51.454Z,8.00
2018-11-03T09:25:22.637Z,8.20
2018-11-03T09:27:51.823Z,8.40
2018-11-03T09:30:20.929Z,8.40
2018-11-03T09:32:50.410Z,8.50
2018-11-03T09:35:19.526Z,8.50
2018-11-03T09:37:49.028Z,8.60
2018-11-03T09:40:18.876Z,8.60
2018-11-03T09:42:48.790Z,8.70
2018-11-03T09:45:18.144Z,8.90
2018-11-03T09:47:47.500Z,9.40
2018-11-03T09:50:16.536Z,9.40
2018-11-03T09:52:45.803Z,9.50
2018-11-03T09:55:17.528Z,9.60
2018-11-03T09:57:46.796Z,9.70
2018-11-03T10:00:18.367Z,9.80
2018-11-03T10:02:47.694Z,10.10
2018-11-03T10:05:17.306Z,10.40
2018-11-03T10:07:46.481Z,10.50
2018-11-03T10:10:17.964Z,10.50
2018-11-03T10:12:47.686Z,10.60
2018-11-03T10:15:18.041Z,10.70
2018-11-03T10:17:47.426Z,10.80
2018-11-03T10:20:16.939Z,11.00
2018-11-03T10:22:45.886Z,11.10
2018-11-03T10:25:16.533Z,11.20
2018-11-03T10:27:45.928Z,11.30
2018-11-03T10:30:16.157Z,11.40
2018-11-03T10:32:45.151Z,11.40
2018-11-03T10:35:14.639Z,11.40
2018-11-03T10:37:43.940Z,11.50
2018-11-03T10:40:16.312Z,11.50
2018-11-03T10:42:45.595Z,11.50
2018-11-03T10:45:15.854Z,11.60
2018-11-03T10:47:44.980Z,11.60
2018-11-03T10:50:15.536Z,11.60
2018-11-03T10:52:45.461Z,11.60
2018-11-03T10:55:16.068Z,11.70
2018-11-03T10:57:45.385Z,11.60
2018-11-03T11:00:21.130Z,11.50
2018-11-03T11:02:55.127Z,11.50
2018-11-03T11:05:29.050Z,11.50
2018-11-03T11:08:03.326Z,11.60
2018-11-03T11:10:37.468Z,11.80
2018-11-03T11:13:11.151Z,11.90
2018-11-03T11:15:40.155Z,12.10
2018-11-03T11:18:09.408Z,12.10
2018-11-03T11:20:38.304Z,12.00
2018-11-03T11:23:07.670Z,11.90
2018-11-03T11:25:36.800Z,11.80
2018-11-03T11:28:06.109Z,11.90
2018-11-03T11:30:36.006Z,12.10
2018-11-03T11:33:06.533Z,12.20
2018-11-03T11:35:35.867Z,12.20
2018-11-03T11:38:05.808Z,12.30
2018-11-03T11:40:35.369Z,12.30
2018-11-03T11:43:04.646Z,12.30
2018-11-03T11:45:33.913Z,12.20
2018-11-03T11:48:03.338Z,12.30
2018-11-03T11:50:32.552Z,12.30
2018-11-03T11:53:01.955Z,12.30
2018-11-03T11:55:31.197Z,12.30
2018-11-03T11:58:00.488Z,12.50
2018-11-03T12:00:29.826Z,12.50
2018-11-03T12:02:59.093Z,12.50
2018-11-03T12:05:32.131Z,12.40
2018-11-03T12:08:01.417Z,12.40
2018-11-03T12:10:30.584Z,12.40
2018-11-03T12:13:00.168Z,12.40
2018-11-03T12:15:29.077Z,12.40
2018-11-03T12:17:59.304Z,12.50
2018-11-03T12:20:28.562Z,12.40
2018-11-03T12:22:57.545Z,12.30
2018-11-03T12:25:26.853Z,12.30
2018-11-03T12:27:56.558Z,12.50
2018-11-03T12:30:30.483Z,12.50
2018-11-03T12:33:00.912Z,12.40
2018-11-03T12:35:30.497Z,12.30
2018-11-03T12:37:59.880Z,12.40
2018-11-03T12:40:29.099Z,12.20
2018-11-03T12:42:58.477Z,12.20
2018-11-03T12:45:27.753Z,12.30
2018-11-03T12:48:01.618Z,12.20
2018-11-03T12:50:30.798Z,12.20
2018-11-03T12:53:00.123Z,12.10
2018-11-03T12:55:29.080Z,12.00
2018-11-03T12:57:58.340Z,12.20
2018-11-03T13:00:27.829Z,12.20
2018-11-03T13:02:57.499Z,12.30
2018-11-03T13:05:26.866Z,12.30
2018-11-03T13:07:56.337Z,12.30
2018-11-03T13:10:25.711Z,12.30
2018-11-03T13:12:55.098Z,12.30
2018-11-03T13:15:24.453Z,12.40
2018-11-03T13:17:53.369Z,12.40
2018-11-03T13:20:22.374Z,12.30
2018-11-03T13:22:51.400Z,12.40
2018-11-03T13:25:20.525Z,12.30
2018-11-03T13:27:50.121Z,12.20
2018-11-03T13:30:19.402Z,12.30
2018-11-03T13:32:48.754Z,12.30
2018-11-03T13:35:17.892Z,12.20
2018-11-03T13:37:48.123Z,12.10
2018-11-03T13:40:18.187Z,12.10
2018-11-03T13:42:47.338Z,12.20
2018-11-03T13:45:16.345Z,12.30
2018-11-03T13:47:45.938Z,12.30
2018-11-03T13:50:15.876Z,12.20
2018-11-03T13:52:46.249Z,12.20
2018-11-03T13:55:15.505Z,12.20
2018-11-03T13:57:45.823Z,12.20
2018-11-03T14:00:16.689Z,12.20
2018-11-03T14:02:47.349Z,12.20
2018-11-03T14:05:17.111Z,12.30
2018-11-03T14:07:46.451Z,12.20
2018-11-03T14:10:17.074Z,12.10
2018-11-03T14:12:46.858Z,12.10
2018-11-03T14:15:17.512Z,12.10
2018-11-03T14:17:46.492Z,12.00
2018-11-03T14:20:19.558Z,12.00
2018-11-03T14:22:48.478Z,12.00
2018-11-03T14:25:18.532Z,12.00
2018-11-03T14:27:48.243Z,12.00
2018-11-03T14:30:17.332Z,12.10
2018-11-03T14:32:46.568Z,12.00
2018-11-03T14:35:16.411Z,11.90
2018-11-03T14:37:46.060Z,11.90
2018-11-03T14:40:17.356Z,11.90
2018-11-03T14:42:47.079Z,11.90
2018-11-03T14:45:16.926Z,11.90
2018-11-03T14:47:46.221Z,11.80
2018-11-03T14:50:19.412Z,11.80
2018-11-03T14:52:49.205Z,11.70
2018-11-03T14:55:22.457Z,11.70
2018-11-03T14:57:52.083Z,11.60
2018-11-03T15:00:21.315Z,11.60
2018-11-03T15:02:50.478Z,11.50
2018-11-03T15:05:19.912Z,11.50
2018-11-03T15:07:49.157Z,11.50
2018-11-03T15:10:18.282Z,11.50
2018-11-03T15:12:47.644Z,11.40
2018-11-03T15:15:16.997Z,11.40
2018-11-03T15:17:46.148Z,11.40
2018-11-03T15:20:15.396Z,11.30
2018-11-03T15:22:44.680Z,11.30
2018-11-03T15:25:15.974Z,11.30
2018-11-03T15:27:45.326Z,11.20
2018-11-03T15:30:15.129Z,11.20
2018-11-03T15:32:44.197Z,11.30
2018-11-03T15:35:13.826Z,11.20
2018-11-03T15:37:43.092Z,11.10
2018-11-03T15:40:13.881Z,11.00
2018-11-03T15:42:43.471Z,11.00
2018-11-03T15:45:14.624Z,11.10
2018-11-03T15:47:43.999Z,11.00
2018-11-03T15:50:13.815Z,10.90
2018-11-03T15:52:43.417Z,10.80
2018-11-03T15:55:12.673Z,10.80
2018-11-03T15:57:41.889Z,10.70
2018-11-03T16:00:17.736Z,10.70
2018-11-03T16:02:47.192Z,10.60
2018-11-03T16:05:16.913Z,10.40
2018-11-03T16:07:46.941Z,10.40
2018-11-03T16:10:16.330Z,10.30
2018-11-03T16:12:45.694Z,10.30
2018-11-03T16:15:14.836Z,10.30
2018-11-03T16:17:44.138Z,10.30
2018-11-03T16:20:13.511Z,10.20
2018-11-03T16:22:43.041Z,10.10
2018-11-03T16:25:12.100Z,10.10
2018-11-03T16:27:41.384Z,10.00
2018-11-03T16:30:12.855Z,10.00
2018-11-03T16:32:42.171Z,10.00
2018-11-03T16:35:11.261Z,9.90
2018-11-03T16:37:40.799Z,10.00
2018-11-03T16:40:11.811Z,9.90
2018-11-03T16:42:41.332Z,9.80
2018-11-03T16:45:12.092Z,9.80
2018-11-03T16:47:41.710Z,9.80
2018-11-03T16:50:11.971Z,9.80
2018-11-03T16:52:41.794Z,9.80
2018-11-03T16:55:12.073Z,9.70
2018-11-03T16:57:41.230Z,9.60
2018-11-03T17:00:12.625Z,9.50
2018-11-03T17:02:41.938Z,9.50
2018-11-03T17:05:12.452Z,9.50
2018-11-03T17:07:42.056Z,9.40
2018-11-03T17:10:13.903Z,9.40
2018-11-03T17:12:44.086Z,9.40
2018-11-03T17:15:13.591Z,9.40
2018-11-03T17:17:42.333Z,9.40
2018-11-03T17:20:11.659Z,9.30
2018-11-03T17:22:40.644Z,9.40
2018-11-03T17:25:10.780Z,9.40
2018-11-03T17:27:40.109Z,9.40
2018-11-03T17:30:11.480Z,9.30
2018-11-03T17:32:40.626Z,9.20
2018-11-03T17:35:09.926Z,9.20
2018-11-03T17:37:39.174Z,9.20
2018-11-03T17:40:09.132Z,9.20
2018-11-03T17:42:38.192Z,9.10
2018-11-03T17:45:07.949Z,9.10
2018-11-03T17:47:36.960Z,9.10
2018-11-03T17:50:06.796Z,9.00
2018-11-03T17:52:35.971Z,9.00
2018-11-03T17:55:05.773Z,8.90
2018-11-03T17:57:34.855Z,8.90
2018-11-03T18:00:04.845Z,8.90
2018-11-03T18:02:34.172Z,8.80
2018-11-03T18:05:03.531Z,8.70
2018-11-03T18:07:32.728Z,8.80
2018-11-03T18:10:01.956Z,8.70
2018-11-03T18:12:30.892Z,8.60
2018-11-03T18:15:00.510Z,8.60
2018-11-03T18:17:29.577Z,8.50
2018-11-03T18:19:58.616Z,8.50
2018-11-03T18:22:27.910Z,8.30
2018-11-03T18:24:57.115Z,8.40
2018-11-03T18:27:26.118Z,8.40
2018-11-03T18:29:59.345Z,8.30
2018-11-03T18:32:28.591Z,8.30
2018-11-03T18:34:57.717Z,8.30
2018-11-03T18:37:26.927Z,8.30
2018-11-03T18:39:55.940Z,8.30
2018-11-03T18:42:25.426Z,8.30
2018-11-03T18:44:54.615Z,8.20
2018-11-03T18:47:23.957Z,8.20
2018-11-03T18:49:53.369Z,8.20
2018-11-03T18:52:22.702Z,8.20
2018-11-03T18:54:51.868Z,8.10
2018-11-03T18:57:21.161Z,8.00
2018-11-03T18:59:50.468Z,8.00
2018-11-03T19:02:19.842Z,8.00
2018-11-03T19:04:49.235Z,8.00
2018-11-03T19:07:18.541Z,7.90
2018-11-03T19:09:47.304Z,7.90
2018-11-03T19:12:16.411Z,7.80
2018-11-03T19:14:45.221Z,7.70
2018-11-03T19:17:14.038Z,7.60
2018-11-03T19:19:43.172Z,7.60
2018-11-03T19:22:12.024Z,7.40
2018-11-03T19:24:41.152Z,7.30
2018-11-03T19:27:10.251Z,7.30
2018-11-03T19:29:39.293Z,7.10
2018-11-03T19:32:13.413Z,7.10
2018-11-03T19:34:43.112Z,7.00
2018-11-03T19:37:12.189Z,6.80
2018-11-03T19:39:41.807Z,6.90
2018-11-03T19:42:11.447Z,6.70
2018-11-03T19:44:40.624Z,6.70
2018-11-03T19:47:10.099Z,6.60
2018-11-03T19:49:39.293Z,6.60
2018-11-03T19:52:08.176Z,6.60
2018-11-03T19:54:42.115Z,6.50
2018-11-03T19:57:11.657Z,6.70
2018-11-03T19:59:40.833Z,6.70
2018-11-03T20:02:09.784Z,6.90
2018-11-03T20:04:38.751Z,6.80
2018-11-03T20:07:08.364Z,6.80
2018-11-03T20:09:38.112Z,6.80
2018-11-03T20:12:07.851Z,6.70
2018-11-03T20:14:36.850Z,6.80
2018-11-03T20:17:10.493Z,6.60
2018-11-03T20:19:40.064Z,6.40
2018-11-03T20:22:09.490Z,6.30
2018-11-03T20:24:38.896Z,6.30
2018-11-03T20:27:07.912Z,6.10
2018-11-03T20:29:37.259Z,6.00
2018-11-03T20:32:07.128Z,6.00
2018-11-03T20:34:35.909Z,6.00
2018-11-03T20:37:06.063Z,5.90
2018-11-03T20:39:35.027Z,5.90
2018-11-03T20:42:04.381Z,5.80
2018-11-03T20:44:33.984Z,5.80
2018-11-03T20:47:03.019Z,5.80
2018-11-03T20:49:33.996Z,5.80
2018-11-03T20:52:03.212Z,5.90
2018-11-03T20:54:32.553Z,5.90
2018-11-03T20:57:01.970Z,5.80
2018-11-03T20:59:31.017Z,5.70
2018-11-03T21:02:00.386Z,5.70
2018-11-03T21:04:29.483Z,5.60
2018-11-03T21:06:58.881Z,5.60
2018-11-03T21:09:28.552Z,5.60
2018-11-03T21:11:57.785Z,5.50
2018-11-03T21:14:27.063Z,5.50
2018-11-03T21:16:57.034Z,5.40
2018-11-03T21:19:26.528Z,5.50
2018-11-03T21:21:55.848Z,5.40
2018-11-03T21:24:26.122Z,5.50
2018-11-03T21:26:55.188Z,5.50
2018-11-03T21:29:24.714Z,5.60
2018-11-03T21:31:53.870Z,5.50
2018-11-03T21:34:23.265Z,5.50
2018-11-03T21:36:52.504Z,5.50
2018-11-03T21:39:25.683Z,5.60
2018-11-03T21:41:55.049Z,5.50
2018-11-03T21:44:24.467Z,5.50
2018-11-03T21:46:54.079Z,5.50
2018-11-03T21:49:22.945Z,5.40
2018-11-03T21:51:52.462Z,5.40
2018-11-03T21:54:21.317Z,5.40
2018-11-03T21:56:50.641Z,5.30
2018-11-03T21:59:20.071Z,5.40
2018-11-03T22:01:49.031Z,5.50
2018-11-03T22:04:18.392Z,5.50
2018-11-03T22:06:47.701Z,5.40
2018-11-03T22:09:16.527Z,5.50
2018-11-03T22:11:45.358Z,5.50
2018-11-03T22:14:14.469Z,5.50
2018-11-03T22:16:44.235Z,5.50
2018-11-03T22:19:12.972Z,5.50
2018-11-03T22:21:42.675Z,5.50
2018-11-03T22:24:12.117Z,5.50
2018-11-03T22:26:41.261Z,5.60
2018-11-03T22:29:10.214Z,5.60
2018-11-03T22:31:39.129Z,5.50
2018-11-03T22:34:08.227Z,5.60
2018-11-03T22:36:37.667Z,5.60
2018-11-03T22:39:07.948Z,5.60
2018-11-03T22:41:37.514Z,5.60
2018-11-03T22:44:06.843Z,5.60
2018-11-03T22:46:36.529Z,5.60
2018-11-03T22:49:05.765Z,5.70
2018-11-03T22:51:35.130Z,5.60
2018-11-03T22:54:04.452Z,5.60
2018-11-03T22:56:33.749Z,5.60
2018-11-03T22:59:03.056Z,5.60
2018-11-03T23:01:33.047Z,5.70
2018-11-03T23:04:02.379Z,5.70
2018-11-03T23:06:31.252Z,5.60
2018-11-03T23:09:00.516Z,5.60
2018-11-03T23:11:29.952Z,5.60
2018-11-03T23:13:59.334Z,5.50
2018-11-03T23:16:28.571Z,5.40
2018-11-03T23:18:57.625Z,5.40
2018-11-03T23:21:26.909Z,5.40
2018-11-03T23:23:55.979Z,5.40
2018-11-03T23:26:25.441Z,5.40
2018-11-03T23:28:54.772Z,5.40
2018-11-03T23:31:24.017Z,5.30
2018-11-03T23:33:52.859Z,5.30
2018-11-03T23:36:21.889Z,5.40
2018-11-03T23:38:51.326Z,5.30
2018-11-03T23:41:20.496Z,5.40
2018-11-03T23:43:49.916Z,5.40
2018-11-03T23:46:18.956Z,5.50
2018-11-03T23:48:48.016Z,5.50
2018-11-03T23:51:16.793Z,5.50
2018-11-03T23:53:45.934Z,5.60
2018-11-03T23:56:15.196Z,5.60
2018-11-03T23:58:44.251Z,5.60
